Time;durP1;ratioP1;P1;durP2;ratioP2;P2;SDS_P1;SDS_P2;PMS_P1;PMS_P2;Temp;Humidity;BMP_temperature;BMP_pressure;BME280_temperature;BME280_humidity;BME280_pressure;Samples;Min_cycle;Max_cycle;Signal;HPM_P1;HPM_P2
2023/01/18 00:00:39;;;;;;;68.50;19.35;;;;;;;;;;5012901;28;20026;-64
2023/01/18 00:03:07;;;;;;;61.92;17.77;;;;;;;;;;5012767;28;20045;-63
2023/01/18 00:05:33;;;;;;;62.00;18.98;;;;;;;;;;5013157;28;20509;-64
2023/01/18 00:07:59;;;;;;;57.90;15.98;;;;;;;;;;5011714;28;20028;-64
2023/01/18 00:10:25;;;;;;;65.43;18.08;;;;;;;;;;5012563;28;20100;-63
2023/01/18 00:12:50;;;;;;;57.33;16.48;;;;;;;;;;5007602;28;20026;-63
2023/01/18 00:15:16;;;;;;;60.55;18.35;;;;;;;;;;5012762;28;20121;-64
2023/01/18 00:17:50;;;;;;;63.03;18.85;;;;;;;;;;5012035;28;20028;-64
2023/01/18 00:20:17;;;;;;;56.10;17.05;;;;;;;;;;5012201;28;20026;-63
2023/01/18 00:22:43;;;;;;;59.03;18.30;;;;;;;;;;5011990;28;20419;-64
2023/01/18 00:25:09;;;;;;;61.28;17.67;;;;;;;;;;5012609;28;20030;-64
2023/01/18 00:27:43;;;;;;;62.30;18.75;;;;;;;;;;5010935;28;20032;-63
2023/01/18 00:30:09;;;;;;;57.35;17.98;;;;;;;;;;5010409;28;20022;-65
2023/01/18 00:32:35;;;;;;;66.07;17.95;;;;;;;;;;5011807;28;20033;-65
2023/01/18 00:35:06;;;;;;;63.35;18.00;;;;;;;;;;5011334;28;20034;-64
2023/01/18 00:37:32;;;;;;;61.85;17.95;;;;;;;;;;5010545;28;20487;-64
2023/01/18 00:39:57;;;;;;;58.83;18.13;;;;;;;;;;5012693;28;20025;-64
2023/01/18 00:45:06;;;;;;;58.47;18.02;;;;;;;;;;5010909;28;20049;-64
2023/01/18 00:47:32;;;;;;;52.85;16.30;;;;;;;;;;5009857;28;20026;-64
2023/01/18 00:49:57;;;;;;;58.63;16.98;;;;;;;;;;5027498;28;20026;-65
2023/01/18 00:52:23;;;;;;;58.97;18.15;;;;;;;;;;5011588;28;20113;-63
2023/01/18 00:54:48;;;;;;;57.40;18.50;;;;;;;;;;5011209;28;20033;-64
2023/01/18 00:57:13;;;;;;;58.05;16.65;;;;;;;;;;5010276;28;20037;-65
2023/01/18 00:59:39;;;;;;;61.42;18.27;;;;;;;;;;5010776;28;20029;-64
2023/01/18 01:02:04;;;;;;;63.80;18.42;;;;;;;;;;5012045;28;20218;-63
2023/01/18 01:07:13;;;;;;;54.50;17.25;;;;;;;;;;5005766;28;20052;-63
2023/01/18 01:09:39;;;;;;;58.58;18.17;;;;;;;;;;5011359;28;20467;-64
2023/01/18 01:26:06;;;;;;;51.20;16.13;;;;;;;;;;5007769;28;20040;-64
2023/01/18 01:28:37;;;;;;;55.92;17.15;;;;;;;;;;5010992;28;20026;-63
2023/01/18 01:31:04;;;;;;;50.38;15.27;;;;;;;;;;5010190;28;20116;-64
2023/01/18 01:33:31;;;;;;;52.28;15.68;;;;;;;;;;5011288;28;20044;-64
2023/01/18 01:35:58;;;;;;;56.05;17.15;;;;;;;;;;5010422;28;20110;-61
2023/01/18 01:38:24;;;;;;;47.22;15.07;;;;;;;;;;5010540;28;20026;-64
2023/01/18 01:41:05;;;;;;;51.45;16.17;;;;;;;;;;5010901;28;20042;-64
2023/01/18 01:43:51;;;;;;;44.53;14.10;;;;;;;;;;5008160;28;20068;-64
2023/01/18 01:46:53;;;;;;;45.97;15.43;;;;;;;;;;5006833;28;20038;-63
2023/01/18 01:49:27;;;;;;;41.08;15.02;;;;;;;;;;4972529;28;20574;-64
2023/01/18 01:52:14;;;;;;;41.72;15.10;;;;;;;;;;5010509;28;20155;-63
2023/01/18 01:55:00;;;;;;;45.15;15.88;;;;;;;;;;5009222;28;20030;-64
2023/01/18 01:57:38;;;;;;;46.88;15.52;;;;;;;;;;5023966;28;20033;-64
2023/01/18 02:00:13;;;;;;;51.08;15.63;;;;;;;;;;5025343;28;20049;-63
2023/01/18 02:02:40;;;;;;;43.33;14.52;;;;;;;;;;5008361;28;20109;-63
2023/01/18 02:05:08;;;;;;;43.53;14.20;;;;;;;;;;5025353;28;20365;-62
2023/01/18 02:07:33;;;;;;;36.10;13.73;;;;;;;;;;5008941;28;20112;-65
2023/01/18 02:10:00;;;;;;;38.72;15.52;;;;;;;;;;5023843;28;20109;-64
2023/01/18 02:12:28;;;;;;;35.90;13.75;;;;;;;;;;5010035;28;20030;-65
2023/01/18 02:14:54;;;;;;;37.35;13.70;;;;;;;;;;5010319;28;20034;-64
2023/01/18 02:17:44;;;;;;;44.28;14.70;;;;;;;;;;5009838;28;20034;-64
2023/01/18 02:20:27;;;;;;;40.40;14.02;;;;;;;;;;5006330;28;20033;-64
2023/01/18 02:23:17;;;;;;;41.17;14.38;;;;;;;;;;5008822;28;20403;-64
2023/01/18 02:26:13;;;;;;;38.85;12.90;;;;;;;;;;5010348;28;20105;-64
2023/01/18 02:28:44;;;;;;;36.35;13.82;;;;;;;;;;5009715;28;20042;-63
2023/01/18 02:31:17;;;;;;;38.95;13.93;;;;;;;;;;5010668;28;20080;-63
2023/01/18 02:34:02;;;;;;;39.22;13.95;;;;;;;;;;5006664;28;20072;-64
2023/01/18 02:36:39;;;;;;;38.80;14.07;;;;;;;;;;5009322;28;20076;-64
2023/01/18 02:39:21;;;;;;;37.03;14.30;;;;;;;;;;5009409;28;20105;-63
2023/01/18 02:47:31;;;;;;;30.60;12.60;;;;;;;;;;5008717;28;20029;-64
2023/01/18 02:49:56;;;;;;;29.98;11.88;;;;;;;;;;5009503;28;20026;-64
2023/01/18 02:52:46;;;;;;;32.25;12.48;;;;;;;;;;5008707;28;20040;-63
2023/01/18 02:55:37;;;;;;;30.23;12.23;;;;;;;;;;5009914;28;20033;-64
2023/01/18 02:58:13;;;;;;;29.95;12.05;;;;;;;;;;5006365;28;20554;-63
2023/01/18 03:00:45;;;;;;;33.88;11.20;;;;;;;;;;5009395;28;20026;-64
2023/01/18 03:03:12;;;;;;;35.92;13.18;;;;;;;;;;5009237;28;20159;-63
2023/01/18 03:05:40;;;;;;;37.53;15.00;;;;;;;;;;5009817;28;20028;-64
2023/01/18 03:08:34;;;;;;;42.03;13.85;;;;;;;;;;5005494;28;20038;-64
2023/01/18 03:11:03;;;;;;;44.28;14.95;;;;;;;;;;5009862;28;20037;-64
2023/01/18 03:13:47;;;;;;;47.20;16.33;;;;;;;;;;5009471;28;20391;-64
2023/01/18 03:16:25;;;;;;;48.08;15.48;;;;;;;;;;5008255;28;20038;-64
2023/01/18 03:18:59;;;;;;;48.63;16.67;;;;;;;;;;5009765;28;20025;-63
2023/01/18 03:21:40;;;;;;;48.40;16.63;;;;;;;;;;5009791;28;20455;-63
2023/01/18 03:24:08;;;;;;;46.00;16.10;;;;;;;;;;5009246;28;20029;-64
2023/01/18 03:26:39;;;;;;;46.65;16.70;;;;;;;;;;5009215;28;20034;-63
2023/01/18 03:35:06;;;;;;;49.38;16.02;;;;;;;;;;5009713;28;20032;-63
2023/01/18 03:37:38;;;;;;;42.50;15.05;;;;;;;;;;5002881;28;20435;-62
2023/01/18 03:40:09;;;;;;;45.60;15.55;;;;;;;;;;5006747;28;20037;-62
2023/01/18 03:42:41;;;;;;;48.97;16.65;;;;;;;;;;5009322;28;20500;-62
2023/01/18 03:45:31;;;;;;;43.92;16.13;;;;;;;;;;5009938;28;20044;-63
2023/01/18 03:47:57;;;;;;;;;;;;;;;;;;5006516;28;20065;-64
2023/01/18 03:50:28;;;;;;;50.10;17.05;;;;;;;;;;5009966;28;19956;-63
2023/01/18 03:52:57;;;;;;;48.72;16.35;;;;;;;;;;5009117;28;20069;-62
2023/01/18 03:55:33;;;;;;;55.33;18.65;;;;;;;;;;5009866;28;20499;-62
2023/01/18 03:58:06;;;;;;;52.65;17.52;;;;;;;;;;5004773;28;20565;-62
2023/01/18 04:00:32;;;;;;;51.63;18.33;;;;;;;;;;5018873;28;20112;-63
2023/01/18 04:02:57;;;;;;;54.67;18.45;;;;;;;;;;5007441;28;20104;-62
2023/01/18 04:05:24;;;;;;;60.55;19.23;;;;;;;;;;5008953;28;20029;-63
2023/01/18 04:07:49;;;;;;;61.05;18.02;;;;;;;;;;5008920;28;20460;-63
2023/01/18 04:10:15;;;;;;;56.25;18.10;;;;;;;;;;5009650;28;20057;-61
2023/01/18 04:12:41;;;;;;;54.80;18.63;;;;;;;;;;5008186;28;20053;-61
2023/01/18 04:15:06;;;;;;;56.08;18.17;;;;;;;;;;5015125;28;20036;-64
2023/01/18 04:17:32;;;;;;;54.92;17.85;;;;;;;;;;5008905;28;20598;-64
2023/01/18 04:19:57;;;;;;;57.78;19.35;;;;;;;;;;5009432;28;20483;-64
2023/01/18 04:22:23;;;;;;;55.95;17.27;;;;;;;;;;5009186;28;20045;-63
2023/01/18 04:24:48;;;;;;;59.85;19.02;;;;;;;;;;5010135;28;20128;-64
2023/01/18 04:27:13;;;;;;;55.35;17.50;;;;;;;;;;5008874;28;20034;-64
2023/01/18 04:29:39;;;;;;;55.17;18.92;;;;;;;;;;5007578;28;20398;-64
2023/01/18 04:32:05;;;;;;;53.15;17.75;;;;;;;;;;5012129;28;20054;-64
2023/01/18 04:34:31;;;;;;;55.25;18.55;;;;;;;;;;5013081;28;20025;-63
2023/01/18 04:36:56;;;;;;;55.88;17.10;;;;;;;;;;5012570;28;20041;-63
2023/01/18 04:39:22;;;;;;;53.33;17.05;;;;;;;;;;5013455;28;20033;-63
2023/01/18 04:41:47;;;;;;;54.88;17.95;;;;;;;;;;5012878;28;20030;-65
2023/01/18 04:44:13;;;;;;;53.75;18.38;;;;;;;;;;5012428;28;20454;-63
2023/01/18 04:46:38;;;;;;;58.67;18.52;;;;;;;;;;5011633;28;20057;-64
2023/01/18 04:49:05;;;;;;;65.07;20.23;;;;;;;;;;5011934;28;20096;-64
2023/01/18 04:51:31;;;;;;;53.88;17.42;;;;;;;;;;5010713;28;20030;-62
2023/01/18 04:53:58;;;;;;;61.03;19.48;;;;;;;;;;5010882;28;20029;-63
2023/01/18 04:56:24;;;;;;;56.53;18.63;;;;;;;;;;5026172;28;20057;-64
2023/01/18 04:58:53;;;;;;;45.70;15.70;;;;;;;;;;5012805;28;20084;-62
2023/01/18 05:01:19;;;;;;;56.30;18.37;;;;;;;;;;5011816;28;20095;-62
2023/01/18 05:03:44;;;;;;;58.20;19.88;;;;;;;;;;5010250;28;20511;-64
2023/01/18 05:06:12;;;;;;;55.95;19.40;;;;;;;;;;5011168;28;20052;-63
2023/01/18 05:08:39;;;;;;;44.67;15.50;;;;;;;;;;5012418;28;20360;-63
2023/01/18 05:11:07;;;;;;;49.83;16.75;;;;;;;;;;5012382;28;20100;-63
2023/01/18 05:13:33;;;;;;;46.67;16.33;;;;;;;;;;5012155;28;20615;-64
2023/01/18 05:15:59;;;;;;;43.08;15.82;;;;;;;;;;5011389;28;20121;-64
2023/01/18 05:18:25;;;;;;;41.78;15.38;;;;;;;;;;5026354;28;20037;-62
2023/01/18 05:20:50;;;;;;;36.50;13.60;;;;;;;;;;5012456;28;20045;-63
2023/01/18 05:23:16;;;;;;;34.00;13.60;;;;;;;;;;5011669;28;20033;-63
2023/01/18 05:25:42;;;;;;;35.80;13.90;;;;;;;;;;5013006;28;20026;-63
2023/01/18 05:28:08;;;;;;;34.42;12.23;;;;;;;;;;5011232;28;20025;-63
2023/01/18 05:30:38;;;;;;;34.20;12.40;;;;;;;;;;5010345;28;20036;-63
2023/01/18 05:33:03;;;;;;;34.33;14.57;;;;;;;;;;5010311;28;20030;-63
2023/01/18 05:35:30;;;;;;;32.85;12.85;;;;;;;;;;5010497;28;20102;-62
2023/01/18 05:37:56;;;;;;;37.53;14.15;;;;;;;;;;5009732;28;20667;-65
2023/01/18 05:40:21;;;;;;;35.10;13.50;;;;;;;;;;5012062;28;20026;-63
2023/01/18 05:42:47;;;;;;;46.35;13.35;;;;;;;;;;5011797;28;20164;-58
2023/01/18 05:45:12;;;;;;;37.58;12.25;;;;;;;;;;5011814;28;20115;-59
2023/01/18 05:47:39;;;;;;;34.78;13.32;;;;;;;;;;5011392;28;20464;-60
2023/01/18 05:50:06;;;;;;;29.30;12.50;;;;;;;;;;5011857;28;20068;-60
2023/01/18 05:52:31;;;;;;;29.73;12.05;;;;;;;;;;5011165;28;20038;-61
2023/01/18 05:54:57;;;;;;;43.47;15.32;;;;;;;;;;5011813;28;20022;-60
2023/01/18 05:57:22;;;;;;;45.50;16.30;;;;;;;;;;5010842;28;20021;-59
2023/01/18 05:59:47;;;;;;;44.17;17.20;;;;;;;;;;5011536;28;20703;-60
2023/01/18 06:02:13;;;;;;;38.55;14.82;;;;;;;;;;5011500;28;20034;-60
2023/01/18 06:04:38;;;;;;;47.42;16.10;;;;;;;;;;5011602;28;20033;-58
2023/01/18 06:07:04;;;;;;;45.67;17.25;;;;;;;;;;5011100;28;20045;-59
2023/01/18 06:09:29;;;;;;;56.75;19.38;;;;;;;;;;5011875;28;20049;-59
2023/01/18 06:11:55;;;;;;;50.80;22.10;;;;;;;;;;5013757;28;20083;-59
2023/01/18 06:14:20;;;;;;;42.92;18.77;;;;;;;;;;5011820;28;20525;-59
2023/01/18 06:16:46;;;;;;;35.75;16.13;;;;;;;;;;5010832;28;20025;-58
2023/01/18 06:19:11;;;;;;;46.63;17.27;;;;;;;;;;5011688;28;20057;-60
2023/01/18 06:21:36;;;;;;;37.75;16.63;;;;;;;;;;5011638;28;20373;-60
2023/01/18 06:24:02;;;;;;;40.95;17.05;;;;;;;;;;5011419;28;20057;-60
2023/01/18 06:26:30;;;;;;;34.83;13.02;;;;;;;;;;5010641;28;20392;-59
2023/01/18 06:28:56;;;;;;;38.45;15.63;;;;;;;;;;5005649;28;20030;-60
2023/01/18 06:31:21;;;;;;;41.75;17.42;;;;;;;;;;5011228;28;20022;-59
2023/01/18 06:33:47;;;;;;;63.03;22.73;;;;;;;;;;5011111;28;20032;-60
2023/01/18 06:36:13;;;;;;;29.35;12.55;;;;;;;;;;5010305;28;20026;-59
2023/01/18 06:38:38;;;;;;;22.08;10.30;;;;;;;;;;5011226;28;20049;-59
2023/01/18 06:41:03;;;;;;;21.73;11.05;;;;;;;;;;5011150;28;20025;-59
2023/01/18 06:43:29;;;;;;;24.73;10.88;;;;;;;;;;5010731;28;20041;-60
2023/01/18 06:45:55;;;;;;;21.67;9.98;;;;;;;;;;5011039;28;20030;-59
2023/01/18 06:48:22;;;;;;;24.17;10.02;;;;;;;;;;5010244;28;20072;-59
2023/01/18 06:50:48;;;;;;;22.05;10.07;;;;;;;;;;5010755;28;20080;-59
2023/01/18 06:53:14;;;;;;;19.60;9.55;;;;;;;;;;5010848;28;20599;-59
2023/01/18 06:55:40;;;;;;;21.40;9.27;;;;;;;;;;5014998;28;20032;-59
2023/01/18 06:58:05;;;;;;;21.33;10.35;;;;;;;;;;5009916;28;20100;-59
2023/01/18 07:00:30;;;;;;;21.23;10.05;;;;;;;;;;5008442;28;20022;-60
2023/01/18 07:02:57;;;;;;;28.60;12.90;;;;;;;;;;5010380;28;20034;-58
2023/01/18 07:05:22;;;;;;;28.45;12.45;;;;;;;;;;5011012;28;20109;-59
2023/01/18 07:07:47;;;;;;;29.83;12.93;;;;;;;;;;5009855;28;20092;-60
2023/01/18 07:10:13;;;;;;;27.88;12.23;;;;;;;;;;5010645;28;20443;-60
2023/01/18 07:12:38;;;;;;;25.40;11.40;;;;;;;;;;5009822;28;20025;-59
2023/01/18 07:15:07;;;;;;;27.27;11.93;;;;;;;;;;5010674;28;20423;-59
2023/01/18 07:17:33;;;;;;;27.15;12.68;;;;;;;;;;5009418;28;20041;-59
2023/01/18 07:19:58;;;;;;;24.60;11.18;;;;;;;;;;5010349;28;20079;-58
2023/01/18 07:22:23;;;;;;;19.88;10.50;;;;;;;;;;5010025;28;20026;-59
2023/01/18 07:24:49;;;;;;;17.73;9.65;;;;;;;;;;5009103;28;20038;-59
2023/01/18 07:27:14;;;;;;;17.02;8.95;;;;;;;;;;5008975;28;20369;-60
2023/01/18 07:29:39;;;;;;;17.40;9.80;;;;;;;;;;5010685;28;20040;-60
2023/01/18 07:32:05;;;;;;;18.27;9.80;;;;;;;;;;5009394;28;20088;-59
2023/01/18 07:34:30;;;;;;;18.83;10.18;;;;;;;;;;5010063;28;20030;-59
2023/01/18 07:36:56;;;;;;;20.15;11.43;;;;;;;;;;5009749;28;20036;-60
2023/01/18 07:39:21;;;;;;;21.48;10.77;;;;;;;;;;5010064;28;20026;-59
2023/01/18 07:41:46;;;;;;;26.80;11.63;;;;;;;;;;5009738;28;20118;-58
2023/01/18 07:44:12;;;;;;;22.63;10.80;;;;;;;;;;5006826;28;20491;-60
2023/01/18 07:46:38;;;;;;;26.38;12.18;;;;;;;;;;5009269;28;20105;-58
2023/01/18 07:49:04;;;;;;;27.23;11.07;;;;;;;;;;5009653;28;20091;-59
2023/01/18 07:51:31;;;;;;;26.40;11.82;;;;;;;;;;5010039;28;20030;-60
2023/01/18 07:53:57;;;;;;;27.20;12.60;;;;;;;;;;5009683;28;20399;-59
2023/01/18 07:56:24;;;;;;;24.33;11.82;;;;;;;;;;5007332;28;20030;-60
2023/01/18 07:58:51;;;;;;;22.25;10.73;;;;;;;;;;5009793;28;20042;-59
2023/01/18 08:01:18;;;;;;;15.35;9.15;;;;;;;;;;5011132;28;20026;-58
2023/01/18 08:03:46;;;;;;;21.83;10.80;;;;;;;;;;5013021;28;20121;-60
2023/01/18 08:06:17;;;;;;;21.35;10.95;;;;;;;;;;5012588;28;20056;-59
2023/01/18 08:08:43;;;;;;;17.30;9.63;;;;;;;;;;5013764;28;20018;-58
2023/01/18 08:11:09;;;;;;;22.60;11.65;;;;;;;;;;5013773;28;20030;-59
2023/01/18 08:13:35;;;;;;;18.33;9.82;;;;;;;;;;5012798;28;20030;-60
2023/01/18 08:16:02;;;;;;;20.92;9.68;;;;;;;;;;5011334;28;20029;-59
2023/01/18 08:18:28;;;;;;;18.08;8.68;;;;;;;;;;5013294;28;20175;-58
2023/01/18 08:20:53;;;;;;;16.02;7.93;;;;;;;;;;5013511;28;20539;-58
2023/01/18 08:23:19;;;;;;;16.98;8.82;;;;;;;;;;5012830;28;20487;-59
2023/01/18 08:25:46;;;;;;;19.35;9.18;;;;;;;;;;5013465;28;20029;-59
2023/01/18 08:28:12;;;;;;;16.83;9.00;;;;;;;;;;5012289;28;20034;-59
2023/01/18 08:30:40;;;;;;;16.92;8.65;;;;;;;;;;5013262;28;20029;-59
2023/01/18 08:33:06;;;;;;;21.58;9.88;;;;;;;;;;5012182;28;20057;-59
2023/01/18 08:35:38;;;;;;;19.85;9.50;;;;;;;;;;5028179;28;20491;-58
2023/01/18 08:38:03;;;;;;;18.05;8.75;;;;;;;;;;5012340;28;20037;-58
2023/01/18 08:40:29;;;;;;;17.98;8.43;;;;;;;;;;5012696;28;20291;-60
2023/01/18 08:42:56;;;;;;;19.15;9.35;;;;;;;;;;5009545;28;20041;-60
2023/01/18 08:45:22;;;;;;;24.45;10.48;;;;;;;;;;5008743;28;20422;-60
2023/01/18 08:47:55;;;;;;;17.55;9.55;;;;;;;;;;5011684;28;20477;-59
2023/01/18 08:50:20;;;;;;;26.05;11.18;;;;;;;;;;5009696;28;20030;-60
2023/01/18 08:52:46;;;;;;;19.75;10.10;;;;;;;;;;5012322;28;20033;-61
2023/01/18 08:55:11;;;;;;;23.85;12.02;;;;;;;;;;5013342;28;20088;-59
2023/01/18 08:57:36;;;;;;;21.17;9.65;;;;;;;;;;5012110;28;20089;-60
2023/01/18 09:00:03;;;;;;;20.00;9.57;;;;;;;;;;5012524;28;20034;-60
2023/01/18 09:02:28;;;;;;;20.52;10.02;;;;;;;;;;5027428;28;20461;-60
2023/01/18 09:04:54;;;;;;;25.27;11.15;;;;;;;;;;5012482;28;20029;-59
2023/01/18 09:07:19;;;;;;;25.67;11.02;;;;;;;;;;5011818;28;20037;-58
2023/01/18 09:09:45;;;;;;;25.75;11.02;;;;;;;;;;5012020;28;20120;-59
2023/01/18 09:12:11;;;;;;;24.92;10.93;;;;;;;;;;5011862;28;20030;-58
2023/01/18 09:14:37;;;;;;;23.55;11.27;;;;;;;;;;5012072;28;20041;-59
2023/01/18 09:17:02;;;;;;;25.27;10.32;;;;;;;;;;5010418;28;20029;-59
2023/01/18 09:19:28;;;;;;;23.55;11.10;;;;;;;;;;5012367;28;20511;-59
2023/01/18 09:21:53;;;;;;;37.33;14.57;;;;;;;;;;5012130;28;20045;-59
2023/01/18 09:24:19;;;;;;;27.23;11.52;;;;;;;;;;5012027;28;20152;-59
2023/01/18 09:26:46;;;;;;;26.08;11.15;;;;;;;;;;5011145;28;20025;-60
2023/01/18 09:29:11;;;;;;;23.08;11.15;;;;;;;;;;5011945;28;20037;-60
2023/01/18 09:31:36;;;;;;;22.10;10.63;;;;;;;;;;5011772;28;20554;-59
2023/01/18 09:34:02;;;;;;;29.80;14.20;;;;;;;;;;5011653;28;20026;-60
2023/01/18 09:36:28;;;;;;;35.15;15.48;;;;;;;;;;5011286;28;20039;-58
2023/01/18 09:38:54;;;;;;;33.33;14.35;;;;;;;;;;5006891;28;20529;-59
2023/01/18 09:41:41;;;;;;;26.20;12.75;;;;;;;;;;5027025;28;20610;-59
2023/01/18 09:44:19;;;;;;;23.02;12.05;;;;;;;;;;5010576;28;20038;-61
2023/01/18 09:46:50;;;;;;;27.73;13.10;;;;;;;;;;5011021;28;20029;-61
2023/01/18 09:49:25;;;;;;;21.30;11.52;;;;;;;;;;5006949;28;20526;-60
2023/01/18 09:52:13;;;;;;;26.38;12.30;;;;;;;;;;5010958;28;20028;-59
2023/01/18 09:54:46;;;;;;;24.48;12.20;;;;;;;;;;5011690;28;20026;-61
2023/01/18 09:57:43;;;;;;;22.23;11.55;;;;;;;;;;5004195;28;20491;-58
2023/01/18 10:00:20;;;;;;;24.15;11.13;;;;;;;;;;5006586;28;20069;-59
2023/01/18 10:02:48;;;;;;;20.80;10.90;;;;;;;;;;5010700;28;20026;-59
2023/01/18 10:05:20;;;;;;;23.00;11.85;;;;;;;;;;5011351;28;20516;-59
2023/01/18 10:08:01;;;;;;;17.48;11.30;;;;;;;;;;5010486;28;20026;-59
2023/01/18 10:10:38;;;;;;;22.15;10.88;;;;;;;;;;5009419;28;20112;-59
2023/01/18 10:13:22;;;;;;;20.92;10.60;;;;;;;;;;5004995;28;20053;-59
2023/01/18 10:15:48;;;;;;;43.15;15.98;;;;;;;;;;5010794;28;20109;-59
2023/01/18 10:18:17;;;;;;;24.10;12.20;;;;;;;;;;5010449;28;20456;-59
2023/01/18 10:20:48;;;;;;;27.15;10.65;;;;;;;;;;5009258;28;20057;-59
2023/01/18 10:23:19;;;;;;;22.88;10.80;;;;;;;;;;5010537;28;20025;-58
2023/01/18 10:26:03;;;;;;;20.05;9.48;;;;;;;;;;5010725;28;20033;-60
2023/01/18 10:28:38;;;;;;;21.17;9.40;;;;;;;;;;5010570;28;20030;-58
2023/01/18 10:31:22;;;;;;;17.08;8.48;;;;;;;;;;5010547;28;20037;-58
2023/01/18 10:33:52;;;;;;;20.30;9.18;;;;;;;;;;5010145;28;20053;-60
2023/01/18 10:36:23;;;;;;;;;;;;;;;;;;5010487;28;20030;-60
2023/01/18 10:38:52;;;;;;;21.63;9.10;;;;;;;;;;5010329;28;20004;-59
2023/01/18 10:41:24;;;;;;;22.48;11.20;;;;;;;;;;5011108;28;20088;-59
2023/01/18 10:43:50;;;;;;;21.02;10.02;;;;;;;;;;5010394;28;20034;-60
2023/01/18 10:46:18;;;;;;;19.00;9.05;;;;;;;;;;5025245;28;20536;-59
2023/01/18 10:48:47;;;;;;;21.48;10.35;;;;;;;;;;5010497;28;20021;-59
2023/01/18 10:51:43;;;;;;;19.45;10.40;;;;;;;;;;5010673;28;20018;-58
2023/01/18 10:54:17;;;;;;;19.98;10.25;;;;;;;;;;4999932;28;20038;-59
2023/01/18 10:56:43;;;;;;;21.77;11.23;;;;;;;;;;5008359;28;20459;-59
2023/01/18 10:59:23;;;;;;;18.58;10.30;;;;;;;;;;5010735;28;20404;-59
2023/01/18 11:01:53;;;;;;;19.60;10.48;;;;;;;;;;5010221;28;20033;-59
2023/01/18 11:04:29;;;;;;;17.65;10.10;;;;;;;;;;5010071;28;20495;-58
2023/01/18 11:06:58;;;;;;;17.60;9.95;;;;;;;;;;5009964;28;20413;-58
2023/01/18 11:10:00;;;;;;;18.27;9.50;;;;;;;;;;5010139;28;20025;-59
2023/01/18 11:12:39;;;;;;;15.70;9.82;;;;;;;;;;5010088;28;20033;-58
2023/01/18 11:15:14;;;;;;;21.08;10.75;;;;;;;;;;5009822;28;20034;-59
2023/01/18 11:17:56;;;;;;;20.15;9.68;;;;;;;;;;5009616;28;20030;-58
2023/01/18 11:20:34;;;;;;;17.65;8.75;;;;;;;;;;5010064;28;20129;-58
2023/01/18 11:23:14;;;;;;;16.02;8.73;;;;;;;;;;5005127;28;20116;-60
2023/01/18 11:26:04;;;;;;;17.48;8.75;;;;;;;;;;5008427;28;20033;-61
2023/01/18 11:28:35;;;;;;;19.08;9.32;;;;;;;;;;5009049;28;20076;-60
2023/01/18 11:31:15;;;;;;;20.60;10.05;;;;;;;;;;5009405;28;20041;-60
2023/01/18 11:33:50;;;;;;;18.05;10.18;;;;;;;;;;5008877;28;20026;-60
2023/01/18 11:36:18;;;;;;;19.25;8.55;;;;;;;;;;5012664;28;20029;-61
2023/01/18 11:38:44;;;;;;;16.50;8.35;;;;;;;;;;5014371;28;20072;-60
2023/01/18 11:41:23;;;;;;;16.90;8.90;;;;;;;;;;5014140;28;20045;-60
2023/01/18 11:44:13;;;;;;;15.80;8.77;;;;;;;;;;5014043;28;20050;-60
2023/01/18 11:46:43;;;;;;;23.70;10.75;;;;;;;;;;5011515;28;20065;-60
2023/01/18 11:49:21;;;;;;;17.92;8.98;;;;;;;;;;5014075;28;20068;-60
2023/01/18 11:52:01;;;;;;;17.70;9.38;;;;;;;;;;5013411;28;20050;-60
2023/01/18 11:54:37;;;;;;;;;;;;;;;;;;5014453;28;20422;-61
2023/01/18 11:57:03;;;;;;;16.70;7.88;;;;;;;;;;5012918;28;19936;-60
2023/01/18 11:59:34;;;;;;;20.08;9.07;;;;;;;;;;5014072;28;20487;-61
2023/01/18 12:02:18;;;;;;;19.48;10.35;;;;;;;;;;5010226;28;20072;-65
2023/01/18 12:05:09;;;;;;;21.00;10.60;;;;;;;;;;5013680;28;20033;-60
2023/01/18 12:08:02;;;;;;;19.45;9.88;;;;;;;;;;5013178;28;20110;-60
2023/01/18 12:10:39;;;;;;;22.08;11.60;;;;;;;;;;5010987;28;20064;-60
2023/01/18 12:13:32;;;;;;;22.33;10.77;;;;;;;;;;5013416;28;20095;-59
2023/01/18 12:16:10;;;;;;;23.00;11.35;;;;;;;;;;5011350;28;20022;-60
2023/01/18 12:19:09;;;;;;;24.27;11.57;;;;;;;;;;5013358;28;20022;-60
2023/01/18 12:22:00;;;;;;;19.60;10.55;;;;;;;;;;5011699;28;20065;-61
2023/01/18 12:24:44;;;;;;;22.45;13.00;;;;;;;;;;5013192;28;20033;-60
2023/01/18 12:27:34;;;;;;;22.42;11.50;;;;;;;;;;5009033;28;20037;-60
2023/01/18 12:30:17;;;;;;;22.25;10.88;;;;;;;;;;5009755;28;20109;-60
2023/01/18 12:32:53;;;;;;;18.55;10.10;;;;;;;;;;5009957;28;20416;-60
2023/01/18 12:35:58;;;;;;;21.88;10.30;;;;;;;;;;5013072;28;20029;-60
2023/01/18 12:38:33;;;;;;;21.25;9.93;;;;;;;;;;5010191;28;20491;-60
2023/01/18 12:41:39;;;;;;;18.92;9.50;;;;;;;;;;5012705;28;20038;-60
2023/01/18 12:44:07;;;;;;;24.30;11.45;;;;;;;;;;5010997;28;20421;-60
2023/01/18 12:47:06;;;;;;;28.90;13.88;;;;;;;;;;5011614;28;20112;-60
2023/01/18 12:49:41;;;;;;;30.40;12.50;;;;;;;;;;5004341;28;20038;-60
2023/01/18 12:52:10;;;;;;;30.17;13.57;;;;;;;;;;5011916;28;20038;-60
2023/01/18 12:54:44;;;;;;;28.35;12.55;;;;;;;;;;5012284;28;20022;-61
2023/01/18 12:57:12;;;;;;;24.27;12.50;;;;;;;;;;5007852;28;20034;-60
2023/01/18 12:59:54;;;;;;;29.33;13.27;;;;;;;;;;5012723;28;20435;-61
2023/01/18 13:02:32;;;;;;;31.23;15.30;;;;;;;;;;5012731;28;20044;-62
2023/01/18 13:05:33;;;;;;;27.13;13.95;;;;;;;;;;5005539;28;20626;-61
2023/01/18 13:08:07;;;;;;;25.70;12.20;;;;;;;;;;5011949;28;20065;-60
2023/01/18 13:10:34;;;;;;;20.77;10.90;;;;;;;;;;5027280;28;20538;-61
2023/01/18 13:13:02;;;;;;;28.35;12.27;;;;;;;;;;5012240;28;20545;-60
2023/01/18 13:15:37;;;;;;;23.30;11.90;;;;;;;;;;5011715;28;20037;-61
2023/01/18 13:18:11;;;;;;;26.02;11.60;;;;;;;;;;5011763;28;20108;-60
2023/01/18 13:20:54;;;;;;;22.30;9.90;;;;;;;;;;5006057;28;20076;-60
2023/01/18 13:23:58;;;;;;;25.23;11.63;;;;;;;;;;5012007;28;20033;-60
2023/01/18 13:26:26;;;;;;;24.13;9.68;;;;;;;;;;5001450;28;20104;-59
2023/01/18 13:29:15;;;;;;;28.00;13.02;;;;;;;;;;5011996;28;20030;-59
2023/01/18 13:31:40;;;;;;;24.13;12.23;;;;;;;;;;5010398;28;20033;-60
2023/01/18 13:34:18;;;;;;;22.13;11.57;;;;;;;;;;5011456;28;20030;-60
2023/01/18 13:36:45;;;;;;;22.38;11.30;;;;;;;;;;5011357;28;20026;-60
2023/01/18 13:39:16;;;;;;;19.00;9.27;;;;;;;;;;5011780;28;20048;-60
2023/01/18 13:42:07;;;;;;;22.05;11.57;;;;;;;;;;5011970;28;20509;-60
2023/01/18 13:44:39;;;;;;;19.27;8.98;;;;;;;;;;5008966;28;20128;-60
2023/01/18 13:47:41;;;;;;;19.85;10.27;;;;;;;;;;5011251;28;20025;-60
2023/01/18 13:50:30;;;;;;;25.67;12.27;;;;;;;;;;5011515;28;20038;-60
2023/01/18 13:53:13;;;;;;;24.92;11.82;;;;;;;;;;5010874;28;20037;-61
2023/01/18 13:55:46;;;;;;;30.63;11.80;;;;;;;;;;5011477;28;20084;-60
2023/01/18 13:58:30;;;;;;;28.95;10.85;;;;;;;;;;5010456;28;20554;-60
2023/01/18 14:00:58;;;;;;;27.20;10.63;;;;;;;;;;5011155;28;20025;-60
2023/01/18 14:03:28;;;;;;;20.85;10.00;;;;;;;;;;5011600;28;20057;-60
2023/01/18 14:05:55;;;;;;;32.20;12.43;;;;;;;;;;5011258;28;20033;-59
2023/01/18 14:08:30;;;;;;;32.90;13.13;;;;;;;;;;5010697;28;20025;-59
2023/01/18 14:11:04;;;;;;;36.10;14.65;;;;;;;;;;5005319;28;20034;-59
2023/01/18 14:13:44;;;;;;;32.25;13.68;;;;;;;;;;5011230;28;20097;-59
2023/01/18 14:16:30;;;;;;;23.77;11.32;;;;;;;;;;5011159;28;20040;-59
2023/01/18 14:19:03;;;;;;;29.83;13.18;;;;;;;;;;5002174;28;20105;-59
2023/01/18 14:21:40;;;;;;;33.97;15.40;;;;;;;;;;5007117;28;20046;-59
2023/01/18 14:24:50;;;;;;;26.67;12.82;;;;;;;;;;5007685;28;20021;-60
2023/01/18 14:27:20;;;;;;;27.92;13.35;;;;;;;;;;5009944;28;20030;-59
2023/01/18 14:29:50;;;;;;;26.83;12.30;;;;;;;;;;5010517;28;20029;-59
2023/01/18 14:32:29;;;;;;;24.30;10.82;;;;;;;;;;5009728;28;20651;-59
2023/01/18 14:34:57;;;;;;;24.70;11.02;;;;;;;;;;5010651;28;20036;-59
2023/01/18 14:37:30;;;;;;;19.88;9.98;;;;;;;;;;5009947;28;20029;-60
2023/01/18 14:40:03;;;;;;;30.25;11.75;;;;;;;;;;5007497;28;20045;-59
2023/01/18 14:42:33;;;;;;;24.58;11.25;;;;;;;;;;5008339;28;20030;-60
2023/01/18 14:45:00;;;;;;;26.85;12.05;;;;;;;;;;5008135;28;20026;-60
2023/01/18 14:47:29;;;;;;;22.27;10.77;;;;;;;;;;5006280;28;20108;-58
2023/01/18 14:49:55;;;;;;;20.08;10.90;;;;;;;;;;5003477;28;20029;-60
2023/01/18 14:52:30;;;;;;;23.63;10.73;;;;;;;;;;5007091;28;20122;-60
2023/01/18 14:54:56;;;;;;;21.17;10.18;;;;;;;;;;5007484;28;20455;-60
2023/01/18 14:57:23;;;;;;;21.45;11.15;;;;;;;;;;5007678;28;20065;-60
2023/01/18 14:59:50;;;;;;;24.40;11.40;;;;;;;;;;5008752;28;20144;-59
2023/01/18 15:02:21;;;;;;;24.83;11.57;;;;;;;;;;5008761;28;20495;-59
2023/01/18 15:04:48;;;;;;;25.80;12.98;;;;;;;;;;5009124;28;20117;-58
2023/01/18 15:07:28;;;;;;;27.98;12.27;;;;;;;;;;5008663;28;20025;-59
2023/01/18 15:09:53;;;;;;;;;;;;;;;;;;5008198;28;20399;-59
2023/01/18 15:12:24;;;;;;;24.92;10.07;;;;;;;;;;5005456;28;19913;-59
2023/01/18 15:14:50;;;;;;;21.33;8.88;;;;;;;;;;5008100;28;20495;-59
2023/01/18 15:17:24;;;;;;;25.90;11.70;;;;;;;;;;5006137;28;20029;-59